Time;durP1;ratioP1;P1;durP2;ratioP2;P2;SDS_P1;SDS_P2;PMS_P1;PMS_P2;Temp;Humidity;BMP_temperature;BMP_pressure;BME280_temperature;BME280_humidity;BME280_pressure;Samples;Min_cycle;Max_cycle;Signal;HPM_P1;HPM_P2
2022/05/16 00:01:05;;;;;;;11.30;4.13;;;;;;;17.91;47.82;101231.34;6240683;23;20239;-82
2022/05/16 00:03:30;;;;;;;11.45;4.05;;;;;;;17.87;47.74;101238.88;6241702;23;20262;-81
2022/05/16 00:05:56;;;;;;;14.48;3.83;;;;;;;17.87;47.96;101229.94;6240272;23;20028;-81
2022/05/16 00:08:22;;;;;;;12.25;3.47;;;;;;;17.80;48.63;101227.00;6236480;23;20015;-82
2022/05/16 00:10:47;;;;;;;10.38;3.60;;;;;;;17.77;48.50;101230.03;6238373;23;19992;-81
2022/05/16 00:13:13;;;;;;;9.75;3.85;;;;;;;17.76;48.29;101231.00;6236117;23;20029;-81
2022/05/16 00:15:38;;;;;;;12.95;4.18;;;;;;;17.70;48.68;101228.94;6211703;23;20012;-81
2022/05/16 00:18:06;;;;;;;9.27;3.70;;;;;;;17.68;48.49;101220.19;6239249;23;20000;-81
2022/05/16 00:20:32;;;;;;;9.05;3.70;;;;;;;17.66;49.04;101214.16;6238616;23;20016;-82
2022/05/16 00:22:58;;;;;;;14.30;4.10;;;;;;;17.61;48.80;101213.78;6238096;23;20072;-82
2022/05/16 00:25:24;;;;;;;12.48;3.65;;;;;;;17.58;48.97;101209.53;6237974;23;20001;-81
2022/05/16 00:27:49;;;;;;;12.05;4.10;;;;;;;17.53;49.14;101210.00;6238045;23;20056;-81
2022/05/16 00:30:17;;;;;;;11.48;3.72;;;;;;;17.50;49.25;101207.63;6240023;23;20001;-81
2022/05/16 00:32:44;;;;;;;9.60;3.95;;;;;;;17.50;49.59;101212.16;6237862;23;20058;-81
2022/05/16 00:35:11;;;;;;;9.93;3.63;;;;;;;17.47;49.63;101216.00;6210683;23;20083;-82
2022/05/16 00:37:37;;;;;;;10.30;3.55;;;;;;;17.46;49.80;101210.78;6209741;23;20000;-81
2022/05/16 00:40:05;;;;;;;8.95;3.60;;;;;;;17.39;49.96;101199.81;6235205;23;20303;-81
2022/05/16 00:42:30;;;;;;;10.13;4.00;;;;;;;17.42;50.09;101212.06;6234537;23;20004;-81
2022/05/16 00:44:56;;;;;;;15.52;4.82;;;;;;;17.36;50.53;101214.38;6237197;23;20023;-81
2022/05/16 00:47:21;;;;;;;11.10;3.97;;;;;;;17.34;50.40;101205.63;6236445;23;20009;-82
2022/05/16 00:49:51;;;;;;;11.57;4.28;;;;;;;17.32;50.04;101206.78;6209967;23;20020;-82
2022/05/16 00:52:19;;;;;;;10.48;4.10;;;;;;;17.27;50.83;101209.94;6237621;23;20008;-81
2022/05/16 00:55:00;;;;;;;14.48;4.05;;;;;;;17.26;49.92;101213.59;6210265;23;19996;-80
2022/05/16 00:57:35;;;;;;;11.20;4.07;;;;;;;17.20;50.54;101204.34;6234756;23;20012;-81
2022/05/16 01:00:22;;;;;;;12.73;4.20;;;;;;;17.22;49.83;101198.81;6236571;23;20000;-81
2022/05/16 01:05:37;;;;;;;;;;;;;;;17.28;48.83;101191.97;6238100;23;20016;-81
2022/05/16 01:08:06;;;;;;;11.70;3.80;;;;;;;17.13;50.85;101191.66;6238086;23;20237;-81
2022/05/16 01:10:33;;;;;;;10.63;3.88;;;;;;;17.08;51.18;101200.16;6235988;23;20017;-81
2022/05/16 01:12:58;;;;;;;11.63;4.30;;;;;;;17.05;51.50;101195.09;6238299;23;20004;-81
2022/05/16 01:15:23;;;;;;;13.27;4.20;;;;;;;17.03;51.11;101189.03;6242340;23;20008;-82
2022/05/16 01:17:49;;;;;;;14.73;4.20;;;;;;;16.98;51.70;101194.03;6241993;23;20000;-82
2022/05/16 01:20:14;;;;;;;10.00;3.80;;;;;;;16.96;51.24;101202.22;6235507;23;20052;-82
2022/05/16 01:22:49;;;;;;;12.10;4.30;;;;;;;16.96;51.32;101202.22;6235547;23;20008;-82
2022/05/16 01:25:23;;;;;;;13.30;5.10;;;;;;;16.93;51.69;101207.88;6236826;23;20450;-82
2022/05/16 01:27:58;;;;;;;9.88;4.30;;;;;;;16.94;51.45;101209.59;6238577;23;20015;-82
2022/05/16 01:30:41;;;;;;;10.45;4.03;;;;;;;16.93;51.54;101210.56;6241137;23;20009;-82
2022/05/16 01:33:09;;;;;;;12.85;4.25;;;;;;;16.90;52.87;101201.97;6238892;23;20012;-82
2022/05/16 01:35:34;;;;;;;14.13;3.95;;;;;;;16.88;52.97;101191.38;6214274;23;20012;-80
2022/05/16 01:38:18;;;;;;;9.50;3.63;;;;;;;16.85;53.10;101198.91;6239824;23;20012;-81
2022/05/16 01:40:48;;;;;;;8.35;4.18;;;;;;;16.83;52.15;101201.69;6241005;23;20011;-82
2022/05/16 01:43:15;;;;;;;11.55;4.25;;;;;;;16.82;52.64;101191.97;6240505;23;20007;-82
2022/05/16 01:45:42;;;;;;;12.48;4.35;;;;;;;16.76;52.94;101196.09;6240673;23;20001;-82
2022/05/16 01:48:09;;;;;;;10.38;4.25;;;;;;;16.76;52.80;101190.72;6240254;23;20052;-82
2022/05/16 01:50:35;;;;;;;11.18;4.40;;;;;;;16.72;53.46;101191.16;6215491;23;20004;-82
2022/05/16 01:53:01;;;;;;;9.85;4.05;;;;;;;16.69;53.34;101188.81;6241522;23;20000;-82
2022/05/16 01:55:26;;;;;;;8.30;3.70;;;;;;;16.69;53.55;101183.44;6240187;23;20051;-81
2022/05/16 01:57:51;;;;;;;13.65;4.53;;;;;;;16.68;53.40;101189.78;6238581;23;20306;-81
2022/05/16 02:00:17;;;;;;;11.70;4.05;;;;;;;16.65;53.61;101172.16;6240462;23;20004;-82
2022/05/16 02:02:44;;;;;;;8.57;3.47;;;;;;;16.64;53.87;101178.53;6240693;23;20004;-81
2022/05/16 02:05:13;;;;;;;9.45;3.92;;;;;;;16.63;53.62;101174.97;6239764;23;20004;-80
2022/05/16 02:07:38;;;;;;;12.73;4.20;;;;;;;16.64;53.39;101175.84;6239119;23;20068;-81
2022/05/16 02:10:08;;;;;;;10.27;3.92;;;;;;;16.62;53.63;101173.31;6238125;23;20000;-80
2022/05/16 02:12:34;;;;;;;10.40;4.35;;;;;;;16.60;53.99;101169.94;6239395;23;20004;-81
2022/05/16 02:15:00;;;;;;;11.13;4.07;;;;;;;16.59;53.88;101151.31;6215245;23;20008;-82
2022/05/16 02:17:25;;;;;;;10.93;4.43;;;;;;;16.54;54.44;101156.28;6239957;23;20001;-81
2022/05/16 02:19:51;;;;;;;10.97;4.10;;;;;;;16.57;54.25;101155.94;6242807;23;20034;-82
2022/05/16 02:25:01;;;;;;;15.95;4.30;;;;;;;16.53;54.88;101154.56;6241033;23;20247;-81
2022/05/16 02:27:26;;;;;;;12.32;3.95;;;;;;;16.53;54.30;101157.25;6241350;23;20013;-81
2022/05/16 02:29:57;;;;;;;9.70;3.88;;;;;;;16.52;54.24;101158.25;6240809;23;20012;-81
2022/05/16 02:32:23;;;;;;;12.77;4.32;;;;;;;16.51;54.32;101154.72;6241963;23;20008;-81
2022/05/16 02:34:49;;;;;;;13.70;3.83;;;;;;;16.50;54.39;101144.97;6241758;23;20016;-80
2022/05/16 02:37:15;;;;;;;10.35;4.22;;;;;;;16.50;54.75;101144.16;6215930;23;20031;-81
2022/05/16 02:39:44;;;;;;;9.38;3.72;;;;;;;16.49;54.74;101143.31;6238882;23;20004;-80
2022/05/16 02:42:11;;;;;;;12.88;4.20;;;;;;;16.49;54.74;101145.13;6240452;23;19988;-80
2022/05/16 02:44:38;;;;;;;11.30;3.63;;;;;;;16.46;55.12;101139.06;6242440;23;19997;-81
2022/05/16 02:47:09;;;;;;;9.70;4.07;;;;;;;16.45;54.97;101132.03;6241048;23;20001;-80
2022/05/16 02:49:35;;;;;;;9.73;4.22;;;;;;;16.47;54.77;101134.56;6240328;23;20019;-80
2022/05/16 02:52:00;;;;;;;7.63;3.95;;;;;;;16.44;55.09;101133.03;6240745;23;20001;-80
2022/05/16 02:54:25;;;;;;;11.10;3.78;;;;;;;16.42;54.88;101135.03;6236087;23;20029;-81
2022/05/16 02:56:51;;;;;;;10.37;3.90;;;;;;;16.41;55.01;101135.16;6235422;23;20096;-80
2022/05/16 02:59:17;;;;;;;8.57;3.42;;;;;;;16.42;55.07;101118.06;6235158;23;20247;-80
2022/05/16 03:01:42;;;;;;;7.65;3.65;;;;;;;16.42;54.69;101120.75;6236599;23;20009;-80
2022/05/16 03:04:08;;;;;;;8.15;3.65;;;;;;;16.40;54.91;101117.38;6234552;23;20059;-81
2022/05/16 03:06:33;;;;;;;5.97;3.67;;;;;;;16.36;55.02;101113.31;6236448;23;20016;-80
2022/05/16 03:08:59;;;;;;;9.85;3.88;;;;;;;16.36;55.69;101116.84;6235437;23;20008;-80
2022/05/16 03:11:24;;;;;;;9.13;3.72;;;;;;;16.37;55.38;101113.19;6236316;23;20012;-81
2022/05/16 03:13:50;;;;;;;8.25;3.70;;;;;;;16.35;55.37;101119.66;6237913;23;20005;-81
2022/05/16 03:16:16;;;;;;;10.80;3.72;;;;;;;16.34;55.07;101120.69;6243017;23;19988;-81
2022/05/16 03:18:42;;;;;;;10.20;4.15;;;;;;;16.33;55.64;101118.97;6242169;23;19993;-82
2022/05/16 03:21:07;;;;;;;7.68;3.53;;;;;;;16.30;55.34;101120.09;6234820;23;20071;-81
2022/05/16 03:23:32;;;;;;;10.48;3.90;;;;;;;16.30;55.54;101113.91;6235683;23;20071;-81
2022/05/16 03:25:58;;;;;;;7.90;3.55;;;;;;;16.28;55.99;101122.09;6234311;23;20447;-81
2022/05/16 03:28:25;;;;;;;7.43;3.45;;;;;;;16.27;55.81;101117.75;6236688;23;20039;-81
2022/05/16 03:30:51;;;;;;;10.90;3.72;;;;;;;16.28;55.17;101122.09;6235833;23;20008;-81
2022/05/16 03:33:17;;;;;;;10.10;4.05;;;;;;;16.27;55.68;101117.75;6234291;23;20020;-81
2022/05/16 03:35:43;;;;;;;7.75;3.58;;;;;;;16.24;55.54;101126.06;6236656;23;20005;-81
2022/05/16 03:38:08;;;;;;;8.27;3.65;;;;;;;16.26;55.60;101122.25;6234988;23;20005;-80
2022/05/16 03:40:42;;;;;;;9.50;3.75;;;;;;;16.25;55.16;101120.56;6235406;23;20009;-81
2022/05/16 03:43:14;;;;;;;9.60;3.45;;;;;;;16.24;55.42;101112.69;6237878;23;20027;-80
2022/05/16 03:45:40;;;;;;;9.60;4.00;;;;;;;16.21;55.66;101121.84;6236524;23;19997;-80
2022/05/16 03:48:06;;;;;;;9.43;3.95;;;;;;;16.21;56.03;101124.53;6210597;23;20005;-80
2022/05/16 03:50:32;;;;;;;8.35;3.50;;;;;;;16.20;55.90;101108.59;6236558;23;20004;-80
2022/05/16 03:52:59;;;;;;;13.23;3.65;;;;;;;16.21;55.55;101108.44;6211846;23;19997;-81
2022/05/16 03:55:26;;;;;;;10.00;3.55;;;;;;;16.16;56.52;101117.94;6237689;23;20011;-81
2022/05/16 03:57:52;;;;;;;6.63;2.85;;;;;;;16.18;56.01;101115.94;6235769;23;20005;-82
2022/05/16 04:00:18;;;;;;;8.02;3.58;;;;;;;16.19;56.01;101109.59;6236978;23;20012;-82
2022/05/16 04:02:44;;;;;;;10.27;3.47;;;;;;;16.20;55.98;101113.94;6212246;23;19997;-82
2022/05/16 04:05:15;;;;;;;7.40;3.40;;;;;;;16.20;56.27;101106.75;6236857;23;20040;-82
2022/05/16 04:07:41;;;;;;;7.38;3.17;;;;;;;16.20;56.02;101106.75;6239240;23;20011;-82
2022/05/16 04:10:07;;;;;;;9.27;3.92;;;;;;;16.19;56.29;101112.28;6241191;23;20064;-81
2022/05/16 04:12:33;;;;;;;7.72;3.97;;;;;;;16.19;56.11;101118.47;6243547;23;19988;-81
2022/05/16 04:14:58;;;;;;;5.38;3.28;;;;;;;16.18;56.32;101102.53;6244080;23;20036;-81
2022/05/16 04:17:24;;;;;;;6.40;3.60;;;;;;;16.18;56.98;101123.97;6242275;23;20052;-80
2022/05/16 04:19:49;;;;;;;6.25;3.50;;;;;;;16.17;56.74;101131.19;6242853;23;20230;-82
2022/05/16 04:22:15;;;;;;;12.00;3.97;;;;;;;16.18;56.56;101132.03;6243449;23;20019;-82
2022/05/16 04:24:40;;;;;;;9.80;3.80;;;;;;;16.17;56.79;101125.81;6217462;23;19999;-82
2022/05/16 04:27:06;;;;;;;11.10;4.13;;;;;;;16.18;56.77;101130.16;6242674;23;20009;-80
2022/05/16 04:29:36;;;;;;;11.43;4.35;;;;;;;16.18;56.62;101123.97;6243068;23;20043;-81
2022/05/16 04:32:05;;;;;;;8.15;4.25;;;;;;;16.20;56.69;101130.03;6191420;23;20001;-82
2022/05/16 04:34:31;;;;;;;8.43;3.60;;;;;;;16.21;56.73;101127.19;6218277;23;20005;-81
2022/05/16 04:36:57;;;;;;;8.73;3.78;;;;;;;16.22;56.82;101123.53;6216644;23;20060;-81
2022/05/16 04:39:22;;;;;;;10.98;4.18;;;;;;;16.25;56.77;101122.38;6217005;23;20009;-80
2022/05/16 04:44:36;;;;;;;7.18;3.92;;;;;;;16.28;56.91;101122.09;6241952;23;20047;-81
2022/05/16 04:47:02;;;;;;;8.73;3.72;;;;;;;16.32;57.02;101117.28;6215001;23;20201;-80
2022/05/16 04:49:28;;;;;;;11.00;4.40;;;;;;;16.34;57.29;101121.50;6187683;23;20096;-81
2022/05/16 04:51:54;;;;;;;10.27;4.05;;;;;;;16.38;57.06;101124.72;6213419;23;20004;-81
2022/05/16 04:54:19;;;;;;;6.75;3.40;;;;;;;16.42;56.88;101121.63;6241354;23;20001;-81
2022/05/16 04:56:51;;;;;;;10.52;4.60;;;;;;;16.50;56.79;101133.41;6214695;23;20007;-81
2022/05/16 04:59:17;;;;;;;9.18;3.92;;;;;;;16.56;56.63;101139.03;6214080;23;20004;-81
2022/05/16 05:01:43;;;;;;;8.02;3.85;;;;;;;16.61;56.81;101139.41;6215223;23;20005;-81
2022/05/16 05:04:08;;;;;;;9.82;4.70;;;;;;;16.67;56.39;101131.75;6215543;23;20012;-81
2022/05/16 05:06:34;;;;;;;8.02;4.00;;;;;;;16.73;56.44;101128.50;6216963;23;20009;-81
2022/05/16 05:09:00;;;;;;;6.93;3.90;;;;;;;16.77;56.24;101125.38;6243275;23;20007;-81
2022/05/16 05:14:51;;;;;;;10.18;4.00;;;;;;;16.92;56.05;101140.94;6243013;23;20091;-81
2022/05/16 05:16:59;;;;;;;7.30;3.65;;;;;;;17.00;55.91;101138.34;6210439;23;20013;-81
2022/05/16 05:19:25;;;;;;;8.98;4.18;;;;;;;17.08;55.78;101132.22;6216578;23;20016;-80
2022/05/16 05:21:50;;;;;;;10.65;3.20;;;;;;;17.15;55.74;101138.66;6217764;23;19984;-80
2022/05/16 05:24:16;;;;;;;5.03;3.17;;;;;;;17.22;55.76;101129.03;6218230;23;19989;-81
2022/05/16 05:26:46;;;;;;;7.05;3.55;;;;;;;17.30;55.39;101129.09;6218437;23;19993;-80
2022/05/16 05:29:12;;;;;;;15.82;3.78;;;;;;;17.35;55.10;101132.16;6242840;23;20008;-80
2022/05/16 05:31:41;;;;;;;10.40;3.50;;;;;;;17.43;55.72;101128.69;6216109;23;20028;-81
2022/05/16 05:34:11;;;;;;;8.23;3.65;;;;;;;17.50;55.03;101123.53;6216346;23;19997;-81
2022/05/16 05:36:38;;;;;;;6.32;3.45;;;;;;;17.59;54.76;101127.97;6217225;23;20016;-81
2022/05/16 05:39:04;;;;;;;7.72;3.35;;;;;;;17.67;54.08;101141.47;6216807;23;20011;-82
2022/05/16 05:41:33;;;;;;;8.35;3.60;;;;;;;17.76;54.66;101140.50;6242088;23;20005;-82
2022/05/16 05:43:59;;;;;;;9.30;3.90;;;;;;;17.88;54.76;101145.66;6216569;23;20031;-80
2022/05/16 05:46:26;;;;;;;8.18;3.22;;;;;;;18.05;54.07;101150.16;6215731;23;20001;-80
2022/05/16 05:48:52;;;;;;;9.60;3.30;;;;;;;18.14;54.10;101153.72;6215824;23;20008;-80
2022/05/16 05:51:23;;;;;;;10.05;3.38;;;;;;;18.21;53.94;101152.06;6215655;23;20005;-80
2022/05/16 05:53:49;;;;;;;8.75;3.40;;;;;;;18.28;53.56;101154.94;6217931;23;19993;-79
2022/05/16 05:56:14;;;;;;;9.68;3.17;;;;;;;18.34;53.73;101165.06;6217763;23;20376;-80
2022/05/16 05:58:40;;;;;;;8.02;3.25;;;;;;;18.37;53.42;101164.75;6215786;23;20004;-81
2022/05/16 06:01:06;;;;;;;7.13;3.38;;;;;;;18.41;53.23;101160.72;6241353;23;20031;-78
2022/05/16 06:03:32;;;;;;;7.35;3.35;;;;;;;18.44;52.63;101173.03;6211982;23;20000;-80
2022/05/16 06:05:58;;;;;;;8.77;3.47;;;;;;;18.50;53.17;101164.28;6241298;23;20020;-83
2022/05/16 06:08:24;;;;;;;11.77;3.80;;;;;;;18.56;53.40;101165.50;6242044;23;20004;-82
2022/05/16 06:10:50;;;;;;;11.10;3.53;;;;;;;18.61;53.11;101164.00;6244095;23;19989;-79
2022/05/16 06:13:17;;;;;;;12.98;3.70;;;;;;;18.68;53.75;101181.19;6243290;23;19995;-81
2022/05/16 06:15:42;;;;;;;8.38;2.92;;;;;;;18.78;53.46;101174.81;6242451;23;19996;-79
2022/05/16 06:18:08;;;;;;;7.40;3.22;;;;;;;18.89;53.02;101179.13;6244015;23;20048;-80
2022/05/16 06:20:33;;;;;;;15.68;3.53;;;;;;;18.99;53.12;101185.19;6243638;23;20052;-81
2022/05/16 06:22:58;;;;;;;11.52;3.40;;;;;;;19.08;53.52;101183.34;6244018;23;19993;-81
2022/05/16 06:25:42;;;;;;;7.20;3.20;;;;;;;19.17;52.96;101175.13;6243797;23;19996;-80
2022/05/16 06:28:17;;;;;;;9.02;3.20;;;;;;;19.22;52.90;101182.72;6244148;23;20069;-81
2022/05/16 06:30:46;;;;;;;8.57;3.83;;;;;;;19.25;52.76;101189.59;6244246;23;20008;-82
2022/05/16 06:33:13;;;;;;;13.32;3.55;;;;;;;19.28;52.44;101179.34;6243617;23;20004;-81
2022/05/16 06:35:39;;;;;;;7.25;3.80;;;;;;;19.31;52.75;101181.69;6244241;23;20019;-81
2022/05/16 06:38:06;;;;;;;12.43;3.45;;;;;;;19.34;53.35;101191.31;6243593;23;19993;-80
2022/05/16 06:40:31;;;;;;;11.38;3.47;;;;;;;19.36;53.15;101182.03;6243346;23;20019;-79
2022/05/16 06:42:56;;;;;;;14.57;3.88;;;;;;;19.38;53.09;101196.19;6242532;23;20057;-81
2022/05/16 06:45:22;;;;;;;17.40;3.65;;;;;;;19.40;53.04;101194.19;6216685;23;19993;-79
2022/05/16 06:47:47;;;;;;;10.48;3.20;;;;;;;19.42;52.38;101189.47;6242099;23;20013;-80
2022/05/16 06:50:12;;;;;;;16.90;3.73;;;;;;;19.47;53.02;101193.50;6242052;23;20016;-81
2022/05/16 06:52:38;;;;;;;10.13;3.75;;;;;;;19.46;52.96;101192.66;6242988;23;20270;-80
2022/05/16 06:55:04;;;;;;;12.80;4.00;;;;;;;19.51;53.00;101189.47;6242331;23;20005;-79
2022/05/16 06:57:30;;;;;;;13.05;3.85;;;;;;;19.50;53.25;101193.16;6242012;23;20104;-80
2022/05/16 06:59:56;;;;;;;17.10;3.45;;;;;;;19.52;53.11;101201.94;6242776;23;19992;-80
2022/05/16 07:02:21;;;;;;;15.35;3.65;;;;;;;19.55;53.33;101206.97;6242501;23;20005;-80
2022/05/16 07:04:46;;;;;;;10.50;3.10;;;;;;;19.62;53.64;101204.44;6243925;23;20019;-80
2022/05/16 07:07:12;;;;;;;9.45;3.60;;;;;;;19.69;53.54;101200.09;6243571;23;20255;-82
2022/05/16 07:09:39;;;;;;;13.57;3.15;;;;;;;19.76;53.93;101209.19;6217832;23;20068;-83
2022/05/16 07:12:06;;;;;;;20.88;3.47;;;;;;;19.82;53.74;101208.53;6243232;23;20005;-82
2022/05/16 07:14:31;;;;;;;11.15;3.50;;;;;;;19.91;53.44;101204.81;6217677;23;19992;-82
2022/05/16 07:16:57;;;;;;;10.77;3.42;;;;;;;20.00;52.97;101204.78;6243195;23;20000;-82
2022/05/16 07:19:22;;;;;;;12.35;2.90;;;;;;;20.14;54.06;101210.31;6243271;23;20021;-82
2022/05/16 07:21:48;;;;;;;15.77;3.63;;;;;;;20.30;53.57;101219.38;6243146;23;20023;-80
2022/05/16 07:24:13;;;;;;;10.65;3.15;;;;;;;20.43;53.23;101214.28;6217334;23;20231;-81
2022/05/16 07:29:22;;;;;;;19.40;4.65;;;;;;;20.73;53.21;101211.84;6243673;23;20015;-80
2022/05/16 07:31:51;;;;;;;17.50;3.83;;;;;;;20.85;53.12;101213.16;6243192;23;20020;-81
2022/05/16 07:34:16;;;;;;;17.08;3.85;;;;;;;21.00;53.48;101215.97;6217493;23;20244;-81
2022/05/16 07:36:41;;;;;;;13.93;3.17;;;;;;;21.13;52.62;101209.13;6242894;23;20028;-81
2022/05/16 07:39:07;;;;;;;14.85;3.50;;;;;;;21.29;52.33;101208.19;6243534;23;20016;-81
2022/05/16 07:41:32;;;;;;;11.18;2.83;;;;;;;21.40;51.92;101218.56;6243115;23;20048;-81
2022/05/16 07:43:58;;;;;;;9.45;3.38;;;;;;;21.51;52.65;101217.34;6243519;23;19996;-81
2022/05/16 07:46:25;;;;;;;7.65;3.40;;;;;;;21.59;51.89;101223.53;6243290;23;19989;-81
2022/05/16 07:48:50;;;;;;;7.78;2.80;;;;;;;21.68;51.27;101213.47;6242728;23;20007;-81
2022/05/16 07:51:16;;;;;;;9.13;2.63;;;;;;;21.79;51.10;101225.75;6242314;23;20016;-80
2022/05/16 07:53:41;;;;;;;15.40;3.15;;;;;;;21.90;51.29;101224.44;6230287;23;20242;-77
2022/05/16 07:56:21;;;;;;;6.53;2.75;;;;;;;21.98;51.63;101227.06;6228416;23;20005;-78
2022/05/16 07:58:46;;;;;;;9.10;2.90;;;;;;;22.01;51.14;101232.13;6228467;23;20001;-77
2022/05/16 08:01:12;;;;;;;6.97;2.47;;;;;;;22.25;50.63;101227.47;6237992;23;20013;-80
2022/05/16 08:03:38;;;;;;;13.38;3.28;;;;;;;22.60;50.00;101225.09;6239446;23;20251;-81
2022/05/16 08:06:03;;;;;;;14.10;2.97;;;;;;;22.95;49.40;101222.63;6243536;23;20024;-82
2022/05/16 08:11:12;;;;;;;13.27;3.00;;;;;;;23.43;48.39;101226.53;6237691;23;20350;-79
2022/05/16 08:13:39;;;;;;;15.30;2.78;;;;;;;23.67;48.04;101229.88;6226681;23;20005;-78
2022/05/16 08:16:05;;;;;;;16.60;3.05;;;;;;;23.97;47.57;101224.31;6238778;23;20013;-79
2022/05/16 08:18:30;;;;;;;7.07;2.70;;;;;;;24.38;46.84;101227.13;6213141;23;20000;-79
2022/05/16 08:20:55;;;;;;;6.85;2.40;;;;;;;24.82;45.19;101235.09;6236509;23;20005;-79
2022/05/16 08:23:28;;;;;;;4.50;2.17;;;;;;;25.33;45.30;101233.81;6234234;23;20008;-79
2022/05/16 08:25:55;;;;;;;11.55;3.40;;;;;;;25.72;43.44;101235.75;6233492;23;20300;-78
2022/05/16 08:28:22;;;;;;;14.65;2.42;;;;;;;26.04;43.36;101241.44;6233064;23;20019;-79
2022/05/16 08:30:47;;;;;;;6.60;2.22;;;;;;;26.34;42.00;101241.78;6234784;23;20386;-78
2022/05/16 08:33:13;;;;;;;6.07;2.35;;;;;;;26.75;41.40;101237.13;6236097;23;20016;-78
2022/05/16 08:35:39;;;;;;;5.70;2.30;;;;;;;27.10;40.03;101236.75;6211473;23;20008;-78
2022/05/16 08:41:06;;;;;;;4.32;2.10;;;;;;;27.74;40.10;101240.31;6232281;23;20036;-77
2022/05/16 08:43:52;;;;;;;7.57;2.10;;;;;;;28.07;39.00;101232.94;6237889;23;19992;-78
2022/05/16 08:46:26;;;;;;;9.10;2.28;;;;;;;28.30;37.41;101233.13;6238926;23;20020;-78
2022/05/16 08:48:57;;;;;;;8.85;2.50;;;;;;;28.52;37.19;101232.69;6238301;23;20005;-78
2022/05/16 08:51:30;;;;;;;6.63;2.63;;;;;;;28.78;36.95;101237.03;6240106;23;20008;-78
2022/05/16 08:54:14;;;;;;;5.65;2.15;;;;;;;29.19;36.27;101224.50;6241722;23;20009;-78
2022/05/16 08:56:44;;;;;;;5.68;2.30;;;;;;;29.27;35.71;101235.13;6241814;23;20008;-78
2022/05/16 08:59:17;;;;;;;8.18;1.95;;;;;;;29.65;35.49;101233.91;6238838;23;20008;-78
2022/05/16 09:01:52;;;;;;;6.10;2.10;;;;;;;29.94;35.64;101228.63;6211592;23;20051;-78
2022/05/16 09:04:20;;;;;;;3.95;1.75;;;;;;;30.27;33.73;101232.66;6238553;23;20007;-78
2022/05/16 09:07:05;;;;;;;6.65;2.10;;;;;;;30.65;34.28;101231.31;6238393;23;19988;-78
2022/05/16 09:09:42;;;;;;;5.78;2.10;;;;;;;31.10;33.54;101221.53;6239801;23;20004;-77
2022/05/16 09:12:16;;;;;;;4.75;2.10;;;;;;;31.17;32.86;101223.03;6243040;23;20004;-80
2022/05/16 09:14:52;;;;;;;5.05;2.03;;;;;;;31.09;32.65;101233.56;6239876;23;19996;-81
2022/05/16 09:17:39;;;;;;;4.75;2.05;;;;;;;31.14;33.89;101237.25;6244067;23;20012;-80
2022/05/16 09:20:36;;;;;;;9.07;2.08;;;;;;;31.28;33.39;101236.97;6243973;23;20035;-77
2022/05/16 09:23:27;;;;;;;5.47;2.10;;;;;;;31.27;33.11;101240.78;6244802;23;20052;-80
2022/05/16 09:26:02;;;;;;;4.88;1.90;;;;;;;31.40;32.44;101243.22;6244703;22;20064;-79
2022/05/16 09:28:37;;;;;;;7.15;2.15;;;;;;;31.44;31.57;101235.31;6243212;23;20012;-81
2022/05/16 09:31:11;;;;;;;7.60;1.83;;;;;;;31.73;32.28;101239.69;6219544;23;20000;-81
2022/05/16 09:33:44;;;;;;;6.35;2.20;;;;;;;32.04;32.29;101239.31;6245465;23;19999;-82
2022/05/16 09:36:13;;;;;;;9.77;2.50;;;;;;;32.05;30.87;101243.75;6245216;23;20003;-82
2022/05/16 09:38:43;;;;;;;;;;;;;;;32.50;32.75;101242.75;6220109;23;20019;-81
2022/05/16 09:41:34;;;;;;;5.50;2.20;;;;;;;32.45;31.05;101249.00;6245067;23;19919;-81
2022/05/16 09:44:09;;;;;;;9.20;2.40;;;;;;;32.69;30.29;101256.22;6219756;23;20037;-82
2022/05/16 09:46:39;;;;;;;7.60;2.20;;;;;;;32.50;30.05;101258.44;6245010;23;19999;-81
2022/05/16 09:49:18;;;;;;;5.95;2.50;;;;;;;32.74;30.24;101259.03;6245322;23;19985;-81
2022/05/16 09:51:53;;;;;;;8.70;2.30;;;;;;;33.01;30.09;101265.41;6244726;23;20015;-82
2022/05/16 09:54:28;;;;;;;4.72;2.17;;;;;;;33.01;30.31;101270.91;6245271;23;19999;-81
2022/05/16 09:57:07;;;;;;;8.32;2.40;;;;;;;32.85;29.72;101271.81;6219567;23;20039;-81
2022/05/16 09:59:37;;;;;;;8.20;2.60;;;;;;;32.67;30.50;101277.66;6244726;23;20004;-81
2022/05/16 10:02:35;;;;;;;6.70;2.40;;;;;;;33.00;30.99;101280.25;6245080;23;20048;-82
2022/05/16 10:05:20;;;;;;;11.95;2.75;;;;;;;33.01;31.13;101292.13;6244561;23;20060;-79
2022/05/16 10:07:48;;;;;;;8.23;2.92;;;;;;;32.61;30.33;101304.25;6245053;23;20031;-78
2022/05/16 10:10:25;;;;;;;7.75;2.63;;;;;;;32.59;30.99;101299.00;6245167;23;20028;-80
2022/05/16 10:12:51;;;;;;;6.90;2.78;;;;;;;32.17;30.77;101296.72;6245165;23;20004;-80
2022/05/16 10:15:17;;;;;;;6.53;2.88;;;;;;;31.70;31.47;101308.84;6244922;23;20016;-80
2022/05/16 10:17:45;;;;;;;6.45;2.90;;;;;;;31.17;31.92;101313.56;6244916;23;20027;-80
2022/05/16 10:20:17;;;;;;;10.68;2.70;;;;;;;30.44;33.09;101323.22;6245077;23;19992;-80
2022/05/16 10:22:42;;;;;;;11.90;2.88;;;;;;;29.80;34.98;101326.59;6219083;23;20005;-80
2022/05/16 10:25:19;;;;;;;6.93;2.60;;;;;;;29.47;36.42;101352.50;6219036;23;19999;-80
2022/05/16 10:27:48;;;;;;;10.88;3.15;;;;;;;29.08;37.85;101346.47;6243892;23;20004;-80
2022/05/16 10:30:21;;;;;;;5.80;2.78;;;;;;;28.50;39.41;101365.97;6244923;23;20044;-79
2022/05/16 10:35:50;;;;;;;11.48;3.08;;;;;;;27.61;43.25;101369.53;6244641;23;20023;-80
2022/05/16 10:38:28;;;;;;;10.00;3.17;;;;;;;27.56;45.24;101376.69;6244518;23;19997;-81
2022/05/16 10:40:57;;;;;;;8.35;3.08;;;;;;;27.36;47.38;101382.22;6244784;23;20020;-81
2022/05/16 10:43:50;;;;;;;5.95;2.38;;;;;;;27.50;44.69;101384.69;6244403;23;20008;-79
2022/05/16 10:46:19;;;;;;;8.57;3.03;;;;;;;27.37;47.09;101387.47;6244640;23;19989;-80
2022/05/16 10:48:52;;;;;;;5.35;3.05;;;;;;;27.55;46.03;101384.03;6244538;23;20013;-80
2022/05/16 10:51:23;;;;;;;7.72;3.47;;;;;;;27.53;46.63;101382.56;6218932;23;20004;-80
2022/05/16 10:54:20;;;;;;;6.85;3.42;;;;;;;27.66;44.80;101390.69;6244596;23;19995;-80
2022/05/16 10:57:04;;;;;;;12.43;3.33;;;;;;;27.47;47.10;101393.31;6216691;23;20027;-80
2022/05/16 11:00:06;;;;;;;9.98;3.60;;;;;;;27.45;44.38;101397.31;6243725;23;20020;-80
2022/05/16 11:02:59;;;;;;;9.77;3.47;;;;;;;27.40;43.93;101389.78;6218733;23;20061;-80
2022/05/16 11:05:39;;;;;;;7.95;3.40;;;;;;;27.03;43.99;101404.94;6244432;23;20016;-80
2022/05/16 11:08:22;;;;;;;9.52;3.47;;;;;;;26.92;43.90;101398.28;6244156;23;19992;-80
2022/05/16 11:11:02;;;;;;;9.63;3.30;;;;;;;26.66;44.82;101407.31;6244406;23;19991;-80
2022/05/16 11:13:45;;;;;;;11.43;3.72;;;;;;;26.61;45.38;101412.53;6244348;23;20065;-81
2022/05/16 11:16:16;;;;;;;10.20;3.50;;;;;;;26.46;45.37;101410.03;6244331;23;19995;-80
2022/05/16 11:18:51;;;;;;;14.18;3.90;;;;;;;26.38;46.04;101411.09;6243826;23;20126;-81
2022/05/16 11:21:54;;;;;;;5.93;3.80;;;;;;;26.56;45.85;101408.56;6242606;23;19995;-81
2022/05/16 11:24:31;;;;;;;7.90;4.10;;;;;;;26.40;46.29;101412.53;6242721;23;20016;-81
2022/05/16 11:27:09;;;;;;;10.07;4.45;;;;;;;26.40;45.94;101409.00;6217471;23;20004;-81
2022/05/16 11:29:36;;;;;;;;;;;;;;;26.66;44.68;101408.16;6219137;23;20016;-81
2022/05/16 11:32:10;;;;;;;10.55;4.38;;;;;;;26.28;48.80;101410.63;6244187;23;19932;-82
2022/05/16 11:34:39;;;;;;;13.80;4.72;;;;;;;26.12;49.86;101414.63;6244291;23;19992;-81
2022/05/16 11:37:35;;;;;;;11.85;5.10;;;;;;;26.02;48.54;101412.28;6244233;23;19993;-81
2022/05/16 11:40:03;;;;;;;8.90;4.00;;;;;;;26.03;49.45;101419.44;6218318;23;20003;-81
2022/05/16 11:42:41;;;;;;;10.50;4.03;;;;;;;25.97;48.39;101418.34;6218331;23;20009;-81
2022/05/16 11:45:31;;;;;;;10.50;4.55;;;;;;;25.85;46.81;101426.25;6244148;23;20012;-81
2022/05/16 11:48:05;;;;;;;12.32;4.38;;;;;;;25.73;48.16;101425.16;6218324;23;20015;-81
2022/05/16 11:50:41;;;;;;;9.73;3.83;;;;;;;25.72;47.91;101425.38;6218404;23;20020;-81
2022/05/16 11:53:31;;;;;;;13.00;4.07;;;;;;;25.72;48.25;101433.53;6244257;23;19995;-81
2022/05/16 12:01:38;;;;;;;9.15;5.72;;;;;;;25.19;50.10;101442.22;6243897;23;20008;-81